createdAt,value
2016-12-29T00:00:42.092Z,976.57
2016-12-29T00:01:38.762Z,976.54
2016-12-29T00:02:43.012Z,976.53
2016-12-29T00:03:56.566Z,976.51
2016-12-29T00:04:46.474Z,976.50
2016-12-29T00:05:38.570Z,976.49
2016-12-29T00:06:46.500Z,976.47
2016-12-29T00:07:48.797Z,976.47
2016-12-29T00:08:42.806Z,976.49
2016-12-29T00:09:43.796Z,976.45
2016-12-29T00:10:44.306Z,976.51
2016-12-29T00:11:39.550Z,976.50
2016-12-29T00:12:46.622Z,976.52
2016-12-29T00:13:42.525Z,976.51
2016-12-29T00:14:34.609Z,976.52
2016-12-29T00:15:37.654Z,976.51
2016-12-29T00:16:45.065Z,976.46
2016-12-29T00:17:41.464Z,976.48
2016-12-29T00:18:43.759Z,976.44
2016-12-29T00:19:39.565Z,976.46
2016-12-29T00:20:40.873Z,976.43
2016-12-29T00:21:44.289Z,976.44
2016-12-29T00:22:37.356Z,976.44
2016-12-29T00:23:34.502Z,976.41
2016-12-29T00:24:49.845Z,976.43
2016-12-29T00:25:39.836Z,976.45
2016-12-29T00:26:40.533Z,976.47
2016-12-29T00:27:39.662Z,976.46
2016-12-29T00:28:43.395Z,976.43
2016-12-29T00:29:36.757Z,976.44
2016-12-29T00:30:37.961Z,976.46
2016-12-29T00:31:32.862Z,976.42
2016-12-29T00:32:39.820Z,976.39
2016-12-29T00:33:33.751Z,976.41
2016-12-29T00:34:34.740Z,976.38
2016-12-29T00:35:43.829Z,976.38
2016-12-29T00:36:44.135Z,976.37
2016-12-29T00:37:38.989Z,976.35
2016-12-29T00:38:37.616Z,976.33
2016-12-29T00:39:51.568Z,976.34
2016-12-29T00:40:35.957Z,976.33
2016-12-29T00:41:38.540Z,976.33
2016-12-29T00:42:45.662Z,976.28
2016-12-29T00:43:39.552Z,976.28
2016-12-29T00:44:34.960Z,976.29
2016-12-29T00:45:38.913Z,976.35
2016-12-29T00:46:45.879Z,976.39
2016-12-29T00:47:45.277Z,976.34
2016-12-29T00:48:41.309Z,976.35
2016-12-29T00:49:47.130Z,976.30
2016-12-29T00:50:38.504Z,976.29
2016-12-29T00:51:47.067Z,976.29
2016-12-29T00:52:44.685Z,976.28
2016-12-29T00:53:43.943Z,976.29
2016-12-29T00:54:44.333Z,976.27
2016-12-29T00:55:47.874Z,976.26
2016-12-29T00:56:34.192Z,976.27
2016-12-29T00:57:38.716Z,976.28
2016-12-29T00:58:45.532Z,976.27
2016-12-29T00:59:40.235Z,976.33
2016-12-29T01:00:42.568Z,976.32
2016-12-29T01:01:38.151Z,976.31
2016-12-29T01:02:47.998Z,976.31
2016-12-29T01:03:43.444Z,976.31
2016-12-29T01:04:50.364Z,976.28
2016-12-29T01:05:45.802Z,976.27
2016-12-29T01:06:42.754Z,976.27
2016-12-29T01:07:45.074Z,976.24
2016-12-29T01:08:46.551Z,976.24
2016-12-29T01:09:36.181Z,976.26
2016-12-29T01:10:43.042Z,976.22
2016-12-29T01:11:49.244Z,976.21
2016-12-29T01:12:49.816Z,976.21
2016-12-29T01:13:39.316Z,976.18
2016-12-29T01:14:49.331Z,976.20
2016-12-29T01:15:38.975Z,976.22
2016-12-29T01:16:42.975Z,976.21
2016-12-29T01:17:43.156Z,976.19
2016-12-29T01:18:52.748Z,976.17
2016-12-29T01:19:56.492Z,976.17
2016-12-29T01:20:48.872Z,976.17
2016-12-29T01:21:48.706Z,976.15
2016-12-29T01:22:42.752Z,976.19
2016-12-29T01:23:39.571Z,976.24
2016-12-29T01:24:49.016Z,976.30
2016-12-29T01:25:43.015Z,976.30
2016-12-29T01:26:39.026Z,976.33
2016-12-29T01:27:43.954Z,976.32
2016-12-29T01:28:43.757Z,976.27
2016-12-29T01:29:48.561Z,976.26
2016-12-29T01:30:49.874Z,976.26
2016-12-29T01:31:40.696Z,976.29
2016-12-29T01:32:37.436Z,976.19
2016-12-29T01:33:39.702Z,976.22
2016-12-29T01:34:40.453Z,976.21
2016-12-29T01:35:50.458Z,976.23
2016-12-29T01:36:38.048Z,976.28
2016-12-29T01:37:44.272Z,976.27
2016-12-29T01:38:43.307Z,976.24
2016-12-29T01:39:41.831Z,976.21
2016-12-29T01:40:44.055Z,976.18
2016-12-29T01:41:44.644Z,976.18
2016-12-29T01:42:44.350Z,976.15
2016-12-29T01:43:32.733Z,976.17
2016-12-29T01:44:53.989Z,976.15
2016-12-29T01:45:46.705Z,976.15
2016-12-29T01:46:40.453Z,976.15
2016-12-29T01:47:45.545Z,976.18
2016-12-29T01:48:44.753Z,976.17
2016-12-29T01:49:36.389Z,976.16
2016-12-29T01:50:32.853Z,976.12
2016-12-29T01:51:46.493Z,976.13
2016-12-29T01:52:43.552Z,976.10
2016-12-29T01:53:34.319Z,976.10
2016-12-29T01:54:42.993Z,976.06
2016-12-29T01:55:43.078Z,976.08
2016-12-29T01:56:33.909Z,976.07
2016-12-29T01:57:38.494Z,976.05
2016-12-29T01:58:38.089Z,976.03
2016-12-29T01:59:39.039Z,976.02
2016-12-29T02:00:43.459Z,976.00
2016-12-29T02:01:44.370Z,975.99
2016-12-29T02:02:45.710Z,975.96
2016-12-29T02:03:36.849Z,975.95
2016-12-29T02:04:37.823Z,975.92
2016-12-29T02:05:42.621Z,975.95
2016-12-29T02:06:34.523Z,975.93
2016-12-29T02:07:48.469Z,975.95
2016-12-29T02:08:41.207Z,975.97
2016-12-29T02:09:36.611Z,975.91
2016-12-29T02:10:51.118Z,975.93
2016-12-29T02:11:39.810Z,975.95
2016-12-29T02:12:40.865Z,975.93
2016-12-29T02:13:44.640Z,975.97
2016-12-29T02:14:43.128Z,975.94
2016-12-29T02:15:52.150Z,975.96
2016-12-29T02:16:35.791Z,975.93
2016-12-29T02:17:42.348Z,975.95
2016-12-29T02:18:43.761Z,975.95
2016-12-29T02:19:34.478Z,975.92
2016-12-29T02:20:39.422Z,975.94
2016-12-29T02:21:45.758Z,975.93
2016-12-29T02:22:35.674Z,975.95
2016-12-29T02:23:39.510Z,975.93
2016-12-29T02:24:44.429Z,975.97
2016-12-29T02:25:36.128Z,976.00
2016-12-29T02:26:45.508Z,976.00
2016-12-29T02:27:39.405Z,975.98
2016-12-29T02:28:46.407Z,975.99
2016-12-29T02:29:40.366Z,976.00
2016-12-29T02:30:38.541Z,975.97
2016-12-29T02:31:39.491Z,975.93
2016-12-29T02:32:40.363Z,975.96
2016-12-29T02:33:50.184Z,975.95
2016-12-29T02:34:44.544Z,975.97
2016-12-29T02:35:43.888Z,975.99
2016-12-29T02:36:42.837Z,976.02
2016-12-29T02:37:48.475Z,976.03
2016-12-29T02:38:46.209Z,976.04
2016-12-29T02:39:49.840Z,976.07
2016-12-29T02:40:38.748Z,976.05
2016-12-29T02:41:45.080Z,976.04
2016-12-29T02:42:39.395Z,976.10
2016-12-29T02:43:38.550Z,976.08
2016-12-29T02:44:34.543Z,976.06
2016-12-29T02:45:38.940Z,976.06
2016-12-29T02:47:05.085Z,976.05
2016-12-29T02:47:49.668Z,976.04
2016-12-29T02:48:57.304Z,976.02
2016-12-29T02:49:55.532Z,976.03
2016-12-29T02:50:53.309Z,976.01
2016-12-29T02:51:44.184Z,976.08
2016-12-29T02:52:41.417Z,976.10
2016-12-29T02:53:40.914Z,976.11
2016-12-29T02:54:40.429Z,976.13
2016-12-29T02:55:39.245Z,976.06
2016-12-29T02:56:44.006Z,976.07
2016-12-29T02:57:32.863Z,976.05
2016-12-29T02:58:46.506Z,976.07
2016-12-29T02:59:39.291Z,976.06
2016-12-29T03:00:47.276Z,976.04
2016-12-29T03:01:49.609Z,976.06
2016-12-29T03:02:38.742Z,976.05
2016-12-29T03:03:34.722Z,976.06
2016-12-29T03:04:37.633Z,976.07
2016-12-29T03:05:41.300Z,976.16
2016-12-29T03:06:45.060Z,976.12
2016-12-29T03:07:37.613Z,976.10
2016-12-29T03:08:41.931Z,976.14
2016-12-29T03:09:50.076Z,976.10
2016-12-29T03:10:43.381Z,976.11
2016-12-29T03:11:38.824Z,976.14
2016-12-29T03:12:32.460Z,976.10
2016-12-29T03:13:44.637Z,976.10
2016-12-29T03:14:44.656Z,976.01
2016-12-29T03:15:46.957Z,975.99
2016-12-29T03:16:41.464Z,975.97
2016-12-29T03:17:44.303Z,975.98
2016-12-29T03:18:45.076Z,975.99
2016-12-29T03:19:44.226Z,975.99
2016-12-29T03:20:48.156Z,975.97
2016-12-29T03:21:42.953Z,975.95
2016-12-29T03:22:40.702Z,975.92
2016-12-29T03:23:39.693Z,975.93
2016-12-29T03:24:36.551Z,975.92
2016-12-29T03:25:50.784Z,975.96
2016-12-29T03:26:44.527Z,975.99
2016-12-29T03:27:35.949Z,976.01
2016-12-29T03:28:41.469Z,975.98
2016-12-29T03:29:48.343Z,975.99
2016-12-29T03:30:49.581Z,975.96
2016-12-29T03:31:47.737Z,975.96
2016-12-29T03:32:50.611Z,975.98
2016-12-29T03:33:33.759Z,975.97
2016-12-29T03:34:47.426Z,975.97
2016-12-29T03:35:49.068Z,975.97
2016-12-29T03:36:58.580Z,975.95
2016-12-29T03:37:43.278Z,975.95
2016-12-29T03:38:53.209Z,975.94
2016-12-29T03:39:32.814Z,975.92
2016-12-29T03:40:46.736Z,975.94
2016-12-29T03:41:38.657Z,975.98
2016-12-29T03:42:40.731Z,975.93
2016-12-29T03:43:49.876Z,975.87
2016-12-29T03:44:43.508Z,975.93
2016-12-29T03:45:29.721Z,975.93
2016-12-29T03:46:39.879Z,975.94
2016-12-29T03:47:42.619Z,976.00
2016-12-29T03:48:34.761Z,975.97
2016-12-29T03:49:40.269Z,975.98
2016-12-29T03:50:38.679Z,975.96
2016-12-29T03:51:50.070Z,975.95
2016-12-29T03:52:42.600Z,975.99
2016-12-29T03:53:40.974Z,975.95
2016-12-29T03:54:40.569Z,975.97
2016-12-29T03:55:42.909Z,975.98
2016-12-29T03:56:48.721Z,975.93
2016-12-29T03:57:36.814Z,975.91
2016-12-29T03:58:36.448Z,975.93
2016-12-29T03:59:38.800Z,975.94
2016-12-29T04:00:39.457Z,975.92
2016-12-29T04:01:42.953Z,975.92
2016-12-29T04:02:44.731Z,975.90
2016-12-29T04:03:43.638Z,975.91
2016-12-29T04:04:44.690Z,975.91
2016-12-29T04:05:43.439Z,975.90
2016-12-29T04:06:38.621Z,975.92
2016-12-29T04:07:31.938Z,975.90
2016-12-29T04:08:35.980Z,975.90
2016-12-29T04:09:42.559Z,975.94
2016-12-29T04:10:43.081Z,975.92
2016-12-29T04:11:33.621Z,975.90
2016-12-29T04:12:39.229Z,975.89
2016-12-29T04:13:33.860Z,975.85
2016-12-29T04:14:45.314Z,975.86
2016-12-29T04:15:35.994Z,975.88
2016-12-29T04:16:43.572Z,975.88
2016-12-29T04:17:38.161Z,975.90
2016-12-29T04:18:39.501Z,975.93
2016-12-29T04:19:38.481Z,975.93
2016-12-29T04:21:00.467Z,975.90
2016-12-29T04:21:39.479Z,975.93
2016-12-29T04:22:47.293Z,975.93
2016-12-29T04:23:43.387Z,975.91
2016-12-29T04:24:38.525Z,975.90
2016-12-29T04:25:34.861Z,975.92
2016-12-29T04:26:34.860Z,975.86
2016-12-29T04:27:49.837Z,975.86
2016-12-29T04:28:53.151Z,975.87
2016-12-29T04:29:38.553Z,975.87
2016-12-29T04:30:45.450Z,975.87
2016-12-29T04:31:44.231Z,975.89
2016-12-29T04:32:43.480Z,975.87
2016-12-29T04:33:33.756Z,975.86
2016-12-29T04:34:37.891Z,975.87
2016-12-29T04:35:44.465Z,975.86
2016-12-29T04:36:38.764Z,975.90
2016-12-29T04:37:36.802Z,975.91
2016-12-29T04:38:46.930Z,975.93
2016-12-29T04:41:27.220Z,975.89
2016-12-29T04:42:40.781Z,975.90
2016-12-29T04:43:36.805Z,975.89
2016-12-29T04:44:42.457Z,975.86
2016-12-29T04:45:49.227Z,975.85
2016-12-29T04:47:57.240Z,975.86
2016-12-29T04:48:38.631Z,975.89
2016-12-29T04:50:28.449Z,975.88
2016-12-29T04:50:51.483Z,975.89
2016-12-29T04:53:28.712Z,975.92
2016-12-29T04:53:33.926Z,975.89
2016-12-29T04:57:00.584Z,975.88
2016-12-29T04:57:40.232Z,975.87
2016-12-29T04:58:49.731Z,975.85
2016-12-29T04:59:59.355Z,975.83
2016-12-29T05:00:40.663Z,975.84
2016-12-29T05:02:03.183Z,975.87
2016-12-29T05:02:38.718Z,975.86
2016-12-29T05:03:30.499Z,975.88
2016-12-29T05:04:40.597Z,975.91
2016-12-29T05:06:36.119Z,975.92
2016-12-29T05:07:28.926Z,975.93
2016-12-29T05:08:55.637Z,975.93
2016-12-29T05:09:34.509Z,975.91
2016-12-29T05:10:56.078Z,975.92
2016-12-29T05:11:47.098Z,975.86
2016-12-29T05:12:45.953Z,975.87
2016-12-29T05:14:49.024Z,975.87
2016-12-29T05:15:39.642Z,975.90
2016-12-29T05:16:53.759Z,975.98
2016-12-29T05:17:41.794Z,975.94
2016-12-29T05:18:38.767Z,976.01
2016-12-29T05:19:38.398Z,975.97
2016-12-29T05:20:38.047Z,975.98
2016-12-29T05:21:43.296Z,975.95
2016-12-29T05:22:43.262Z,975.94
2016-12-29T05:23:34.264Z,975.95
2016-12-29T05:24:33.788Z,975.99
2016-12-29T05:25:40.932Z,975.99
2016-12-29T05:26:41.769Z,975.91
2016-12-29T05:27:40.685Z,975.91
2016-12-29T05:28:40.894Z,975.91
2016-12-29T05:29:44.192Z,975.90
2016-12-29T05:30:45.579Z,975.90
2016-12-29T05:31:41.680Z,975.97
2016-12-29T05:32:42.229Z,975.94
2016-12-29T05:33:41.002Z,975.93
2016-12-29T05:34:48.360Z,975.92
2016-12-29T05:35:44.524Z,975.91
2016-12-29T05:36:34.115Z,975.88
2016-12-29T05:37:33.670Z,975.90
2016-12-29T05:38:48.005Z,975.91
2016-12-29T05:39:50.637Z,975.89
2016-12-29T05:40:33.214Z,975.87
2016-12-29T05:41:40.312Z,975.89
2016-12-29T05:42:49.746Z,975.92
2016-12-29T05:43:45.937Z,975.95
2016-12-29T05:44:48.330Z,975.95
2016-12-29T05:45:50.217Z,975.88
2016-12-29T05:47:23.353Z,975.92
2016-12-29T05:47:50.430Z,975.91
2016-12-29T05:48:50.490Z,975.93
2016-12-29T05:49:49.452Z,975.89
2016-12-29T05:50:43.802Z,975.90
2016-12-29T05:51:50.407Z,975.89
2016-12-29T05:52:45.745Z,975.84
2016-12-29T05:53:48.315Z,975.85
2016-12-29T05:54:47.808Z,975.84
2016-12-29T05:55:41.481Z,975.87
2016-12-29T05:56:40.255Z,975.90
2016-12-29T05:57:38.601Z,975.90
2016-12-29T05:58:44.771Z,975.90
2016-12-29T05:59:43.797Z,975.89
2016-12-29T06:00:38.570Z,975.91
2016-12-29T06:01:44.217Z,975.92
2016-12-29T06:02:44.449Z,975.93
2016-12-29T06:03:45.505Z,975.92
2016-12-29T06:04:37.408Z,975.91
2016-12-29T06:05:42.276Z,975.90
2016-12-29T06:06:41.981Z,975.86
2016-12-29T06:07:42.996Z,975.85
2016-12-29T06:08:27.011Z,975.84
2016-12-29T06:09:39.906Z,975.85
2016-12-29T06:10:44.690Z,975.90
2016-12-29T06:11:43.782Z,975.89
2016-12-29T06:12:40.199Z,975.89
2016-12-29T06:13:47.328Z,975.87
2016-12-29T06:14:33.442Z,975.87
2016-12-29T06:15:37.386Z,975.90
2016-12-29T06:16:44.588Z,975.91
2016-12-29T06:17:33.821Z,975.89
2016-12-29T06:18:44.857Z,975.89
2016-12-29T06:19:44.610Z,975.93
2016-12-29T06:20:39.619Z,975.89
2016-12-29T06:21:50.021Z,975.88
2016-12-29T06:22:42.539Z,975.93
2016-12-29T06:23:38.287Z,975.92
2016-12-29T06:24:48.317Z,975.93
2016-12-29T06:25:50.347Z,975.91
2016-12-29T06:26:40.537Z,975.95
2016-12-29T06:27:33.030Z,975.90
2016-12-29T06:28:22.011Z,975.89
2016-12-29T06:29:44.011Z,975.90
2016-12-29T06:30:38.163Z,975.89
2016-12-29T06:31:18.820Z,975.91
2016-12-29T06:32:39.159Z,975.93
2016-12-29T06:33:46.865Z,975.93
2016-12-29T06:34:38.807Z,975.93
2016-12-29T06:35:43.606Z,975.98
2016-12-29T06:36:44.538Z,975.96
2016-12-29T06:37:42.086Z,975.94
2016-12-29T06:38:46.640Z,975.94
2016-12-29T06:39:35.906Z,975.98
2016-12-29T06:40:43.510Z,975.96
2016-12-29T06:41:44.764Z,975.96
2016-12-29T06:42:38.569Z,975.98
2016-12-29T06:43:33.350Z,975.95
2016-12-29T06:44:44.536Z,976.00
2016-12-29T06:45:36.186Z,976.02
2016-12-29T06:46:36.776Z,975.98
2016-12-29T06:47:33.008Z,976.01
2016-12-29T06:48:48.657Z,975.98
2016-12-29T06:49:43.944Z,975.99
2016-12-29T06:50:39.659Z,975.95
2016-12-29T06:51:59.529Z,975.96
2016-12-29T06:52:36.934Z,975.96
2016-12-29T06:53:38.542Z,975.95
2016-12-29T06:54:39.049Z,975.97
2016-12-29T06:55:38.625Z,975.93
2016-12-29T06:56:38.779Z,975.94
2016-12-29T06:57:38.222Z,975.97
2016-12-29T06:58:37.668Z,975.95
2016-12-29T07:00:03.846Z,975.98
2016-12-29T07:00:42.620Z,975.93
2016-12-29T07:01:38.502Z,975.95
2016-12-29T07:02:36.503Z,975.93
2016-12-29T07:03:38.286Z,976.00
2016-12-29T07:05:44.466Z,975.97
2016-12-29T07:06:37.829Z,975.99
2016-12-29T07:07:36.377Z,975.98
2016-12-29T07:08:38.491Z,976.00
2016-12-29T07:09:38.105Z,975.99
2016-12-29T07:10:40.353Z,976.05
2016-12-29T07:11:55.545Z,976.04
2016-12-29T07:12:41.681Z,976.05
2016-12-29T07:13:54.487Z,976.03
2016-12-29T07:14:34.617Z,976.05
2016-12-29T07:15:38.563Z,976.04
2016-12-29T07:16:54.393Z,976.09
2016-12-29T07:17:36.951Z,976.11
2016-12-29T07:18:43.920Z,976.10
2016-12-29T07:19:50.223Z,976.12
2016-12-29T07:20:49.564Z,976.13
2016-12-29T07:21:38.604Z,976.12
2016-12-29T07:22:45.481Z,976.11
2016-12-29T07:24:45.401Z,976.08
2016-12-29T07:25:51.580Z,976.06
2016-12-29T07:26:56.193Z,976.07
2016-12-29T07:27:43.704Z,976.01
2016-12-29T07:28:33.929Z,976.02
2016-12-29T07:29:55.734Z,976.01
2016-12-29T07:31:04.233Z,976.06
2016-12-29T07:31:43.678Z,976.02
2016-12-29T07:32:52.626Z,976.03
2016-12-29T07:33:44.777Z,976.01
2016-12-29T07:34:22.307Z,976.06
2016-12-29T07:35:32.524Z,976.06
2016-12-29T07:36:51.526Z,976.12
2016-12-29T07:37:43.650Z,976.08
2016-12-29T07:38:43.447Z,976.12
2016-12-29T07:39:44.762Z,976.07
2016-12-29T07:40:38.010Z,976.06
2016-12-29T07:41:57.704Z,976.11
2016-12-29T07:42:54.923Z,976.09
2016-12-29T07:43:42.210Z,976.11
2016-12-29T07:44:45.556Z,976.08
2016-12-29T07:45:34.779Z,976.10
2016-12-29T07:46:34.386Z,976.07
2016-12-29T07:47:40.156Z,976.04
2016-12-29T07:48:37.005Z,976.05
2016-12-29T07:49:54.409Z,976.06
2016-12-29T07:50:56.534Z,976.08
2016-12-29T07:52:05.920Z,976.12
2016-12-29T07:52:39.232Z,976.16
2016-12-29T07:53:45.562Z,976.13
2016-12-29T07:54:52.409Z,976.12
2016-12-29T07:55:37.552Z,976.12
2016-12-29T07:56:44.501Z,976.14
2016-12-29T07:57:34.148Z,976.14
2016-12-29T07:58:45.544Z,976.15
2016-12-29T07:59:33.988Z,976.15
2016-12-29T08:00:29.617Z,976.17
2016-12-29T08:01:31.487Z,976.13
2016-12-29T08:03:36.242Z,976.09
2016-12-29T08:04:56.365Z,976.10
2016-12-29T08:05:32.749Z,976.09
2016-12-29T08:06:49.827Z,976.06
2016-12-29T08:07:32.359Z,976.10
2016-12-29T08:08:59.861Z,976.07
2016-12-29T08:09:38.060Z,976.01
2016-12-29T08:10:39.367Z,976.02
2016-12-29T08:11:35.125Z,976.01
2016-12-29T08:12:50.175Z,976.01
2016-12-29T08:14:03.720Z,976.02
2016-12-29T08:14:38.459Z,975.97
2016-12-29T08:15:37.676Z,975.96
2016-12-29T08:17:46.733Z,975.97
2016-12-29T08:18:03.310Z,976.00
2016-12-29T08:18:19.270Z,975.95
2016-12-29T08:19:38.150Z,975.95
2016-12-29T08:20:38.776Z,975.95
2016-12-29T08:21:31.653Z,976.00
2016-12-29T08:22:39.542Z,976.01
2016-12-29T08:23:46.229Z,975.99
2016-12-29T08:24:38.584Z,976.01
2016-12-29T08:25:46.610Z,975.97
2016-12-29T08:27:29.880Z,975.93
2016-12-29T08:27:42.193Z,975.94
2016-12-29T08:28:53.151Z,975.96
2016-12-29T08:29:31.092Z,976.02
2016-12-29T08:30:43.240Z,975.97
2016-12-29T08:31:54.239Z,975.98
2016-12-29T08:32:38.809Z,975.95
2016-12-29T08:33:41.933Z,975.98
2016-12-29T08:34:38.756Z,975.92
2016-12-29T08:35:48.671Z,975.96
2016-12-29T08:36:50.450Z,975.99
2016-12-29T08:37:34.988Z,975.97
2016-12-29T08:38:58.472Z,975.98
2016-12-29T08:40:22.574Z,975.98
2016-12-29T08:40:54.281Z,975.97
2016-12-29T08:41:42.960Z,975.95
2016-12-29T08:42:36.102Z,975.97
2016-12-29T08:43:27.099Z,975.97
2016-12-29T08:45:23.533Z,975.96
2016-12-29T08:45:29.505Z,975.96
2016-12-29T08:46:39.586Z,975.96
2016-12-29T08:48:40.374Z,976.00
2016-12-29T08:49:52.210Z,975.97
2016-12-29T08:50:27.967Z,975.99
2016-12-29T08:51:39.791Z,975.97
2016-12-29T08:52:40.505Z,976.03
2016-12-29T08:53:46.504Z,976.06
2016-12-29T08:54:46.545Z,976.02
2016-12-29T08:55:49.563Z,976.03
2016-12-29T08:56:48.645Z,976.10
2016-12-29T08:57:42.626Z,976.09
2016-12-29T08:58:45.011Z,976.11
2016-12-29T08:59:51.532Z,976.10
2016-12-29T09:01:04.558Z,976.11
2016-12-29T09:01:42.284Z,976.10
2016-12-29T09:02:47.614Z,976.11
2016-12-29T09:03:45.805Z,976.11
2016-12-29T09:05:55.662Z,976.15
2016-12-29T09:06:55.041Z,976.13
2016-12-29T09:07:51.977Z,976.15
2016-12-29T09:08:44.043Z,976.09
2016-12-29T09:09:43.953Z,976.11
2016-12-29T09:10:39.712Z,976.13
2016-12-29T09:11:34.292Z,976.12
2016-12-29T09:12:34.134Z,976.14
2016-12-29T09:13:35.776Z,976.11
2016-12-29T09:14:36.857Z,976.17
2016-12-29T09:15:37.440Z,976.17
2016-12-29T09:16:38.435Z,976.18
2016-12-29T09:17:32.136Z,976.13
2016-12-29T09:18:38.254Z,976.14
2016-12-29T09:19:31.134Z,976.09
2016-12-29T09:20:35.678Z,976.10
2016-12-29T09:21:32.538Z,976.13
2016-12-29T09:22:42.754Z,976.12
2016-12-29T09:23:41.334Z,976.07
2016-12-29T09:24:28.324Z,976.10
2016-12-29T09:25:37.446Z,976.13
2016-12-29T09:26:36.007Z,976.07
2016-12-29T09:27:28.911Z,976.14
2016-12-29T09:28:45.005Z,976.13
2016-12-29T09:29:37.540Z,976.17
2016-12-29T09:30:28.562Z,976.09
2016-12-29T09:31:31.654Z,976.09
2016-12-29T09:32:46.553Z,976.11
2016-12-29T09:33:31.683Z,976.07
2016-12-29T09:34:37.549Z,976.10
2016-12-29T09:35:41.040Z,976.10
2016-12-29T09:36:43.179Z,976.08
2016-12-29T09:37:40.739Z,976.10
2016-12-29T09:38:44.640Z,976.12
2016-12-29T09:39:51.702Z,976.08
2016-12-29T09:40:37.577Z,976.10
2016-12-29T09:41:51.135Z,976.06
2016-12-29T09:42:46.644Z,976.08
2016-12-29T09:43:41.325Z,976.07
2016-12-29T09:44:43.964Z,976.07
2016-12-29T09:45:51.627Z,976.11
2016-12-29T09:46:44.445Z,976.08
2016-12-29T09:47:43.235Z,976.11
2016-12-29T09:48:45.547Z,976.05
2016-12-29T09:49:49.870Z,976.09
2016-12-29T09:50:40.819Z,976.07
2016-12-29T09:51:38.011Z,976.09
2016-12-29T09:52:44.209Z,976.08
2016-12-29T09:53:44.595Z,976.11
2016-12-29T09:54:45.804Z,976.09
2016-12-29T09:55:39.399Z,976.05
2016-12-29T09:56:58.876Z,976.03
2016-12-29T09:57:37.125Z,975.97
2016-12-29T09:58:42.854Z,976.01
2016-12-29T09:59:44.415Z,976.00
2016-12-29T10:00:56.031Z,976.01
2016-12-29T10:01:39.548Z,975.98
2016-12-29T10:02:49.865Z,975.98
2016-12-29T10:03:44.658Z,976.04
2016-12-29T10:04:48.174Z,976.03
2016-12-29T10:05:44.719Z,975.98
2016-12-29T10:06:40.646Z,975.98
2016-12-29T10:07:42.211Z,975.97
2016-12-29T10:08:43.915Z,975.94
2016-12-29T10:09:39.826Z,975.95
2016-12-29T10:10:48.518Z,975.98
2016-12-29T10:11:38.417Z,975.96
2016-12-29T10:12:53.588Z,975.95
2016-12-29T10:13:47.595Z,976.00
2016-12-29T10:14:49.756Z,975.96
2016-12-29T10:15:55.540Z,975.99
2016-12-29T10:16:38.136Z,975.95
2016-12-29T10:17:49.992Z,975.97
2016-12-29T10:18:46.708Z,975.95
2016-12-29T10:19:49.893Z,976.02
2016-12-29T10:20:43.699Z,975.95
2016-12-29T10:21:48.743Z,975.94
2016-12-29T10:22:56.495Z,975.97
2016-12-29T10:23:49.416Z,975.97
2016-12-29T10:24:49.525Z,975.96
2016-12-29T10:25:52.280Z,975.93
2016-12-29T10:26:44.286Z,975.93
2016-12-29T10:27:45.257Z,975.86
2016-12-29T10:28:57.551Z,975.90
2016-12-29T10:29:44.405Z,975.85
2016-12-29T10:30:43.596Z,975.90
2016-12-29T10:31:43.438Z,975.87
2016-12-29T10:32:44.733Z,975.86
2016-12-29T10:33:32.970Z,975.88
2016-12-29T10:34:38.957Z,975.92
2016-12-29T10:35:50.370Z,975.83
2016-12-29T10:36:42.731Z,975.86
2016-12-29T10:37:54.107Z,975.84
2016-12-29T10:38:43.962Z,975.81
2016-12-29T10:39:49.808Z,975.78
2016-12-29T10:40:45.938Z,975.85
2016-12-29T10:41:43.357Z,975.82
2016-12-29T10:42:43.737Z,975.79
2016-12-29T10:43:49.805Z,975.78
2016-12-29T10:44:43.914Z,975.76
2016-12-29T10:45:48.374Z,975.79
2016-12-29T10:46:55.678Z,975.77
2016-12-29T10:47:43.809Z,975.77
2016-12-29T10:48:51.158Z,975.79
2016-12-29T10:49:51.276Z,975.74
2016-12-29T10:50:51.057Z,975.77
2016-12-29T10:51:46.545Z,975.70
2016-12-29T10:52:42.103Z,975.75
2016-12-29T10:53:43.967Z,975.70
2016-12-29T10:55:02.249Z,975.71
2016-12-29T10:55:44.972Z,975.69
2016-12-29T10:56:49.523Z,975.69
2016-12-29T10:57:34.261Z,975.63
2016-12-29T10:58:49.941Z,975.68
2016-12-29T10:59:45.398Z,975.63
2016-12-29T11:00:53.430Z,975.64
2016-12-29T11:01:55.371Z,975.62
2016-12-29T11:02:42.402Z,975.59
2016-12-29T11:03:39.833Z,975.62
2016-12-29T11:04:50.571Z,975.57
2016-12-29T11:05:41.963Z,975.55
2016-12-29T11:06:37.699Z,975.62
2016-12-29T11:07:53.313Z,975.62
2016-12-29T11:08:42.130Z,975.55
2016-12-29T11:10:00.405Z,975.59
2016-12-29T11:10:52.296Z,975.56
2016-12-29T11:11:37.434Z,975.51
2016-12-29T11:12:45.543Z,975.54
2016-12-29T11:14:24.179Z,975.58
2016-12-29T11:14:46.991Z,975.52
2016-12-29T11:15:35.488Z,975.57
2016-12-29T11:16:46.228Z,975.51
2016-12-29T11:17:53.637Z,975.50
2016-12-29T11:18:43.960Z,975.51
2016-12-29T11:19:57.448Z,975.51
2016-12-29T11:20:46.725Z,975.46
2016-12-29T11:21:38.727Z,975.48
2016-12-29T11:22:46.638Z,975.47
2016-12-29T11:23:44.301Z,975.47
2016-12-29T11:24:45.700Z,975.46
2016-12-29T11:25:45.539Z,975.50
2016-12-29T11:26:49.990Z,975.49
2016-12-29T11:27:37.478Z,975.50
2016-12-29T11:28:52.386Z,975.53
2016-12-29T11:29:43.955Z,975.51
2016-12-29T11:30:43.049Z,975.49
2016-12-29T11:31:42.404Z,975.42
2016-12-29T11:32:40.868Z,975.44
2016-12-29T11:33:39.828Z,975.39
2016-12-29T11:34:43.976Z,975.41
2016-12-29T11:35:44.004Z,975.36
2016-12-29T11:36:38.440Z,975.36
2016-12-29T11:37:44.707Z,975.36
2016-12-29T11:38:41.577Z,975.34
2016-12-29T11:39:44.671Z,975.32
2016-12-29T11:40:59.426Z,975.29
2016-12-29T11:41:43.879Z,975.30
2016-12-29T11:42:41.668Z,975.33
2016-12-29T11:43:44.480Z,975.31
2016-12-29T11:44:49.539Z,975.27
2016-12-29T11:45:40.784Z,975.20
2016-12-29T11:46:37.913Z,975.21
2016-12-29T11:47:35.620Z,975.19
2016-12-29T11:48:47.037Z,975.19
2016-12-29T11:49:38.961Z,975.20
2016-12-29T11:50:43.732Z,975.14
2016-12-29T11:51:27.044Z,975.17
2016-12-29T11:52:42.739Z,975.13
2016-12-29T11:53:34.045Z,975.13
2016-12-29T11:54:38.045Z,975.09
2016-12-29T11:55:54.600Z,975.06
2016-12-29T11:56:42.099Z,975.05
2016-12-29T11:57:35.329Z,975.02
2016-12-29T11:58:43.679Z,974.98
2016-12-29T11:59:53.513Z,974.99
2016-12-29T12:00:46.209Z,974.93
2016-12-29T12:01:45.016Z,974.96
2016-12-29T12:02:50.034Z,974.94
2016-12-29T12:03:42.931Z,974.94
2016-12-29T12:04:45.044Z,974.97
2016-12-29T12:05:39.790Z,974.91
2016-12-29T12:06:44.932Z,974.90
2016-12-29T12:07:40.906Z,974.91
2016-12-29T12:08:48.912Z,974.92
2016-12-29T12:09:38.256Z,974.91
2016-12-29T12:10:36.636Z,974.91
2016-12-29T12:11:54.170Z,974.89
2016-12-29T12:12:37.650Z,974.93
2016-12-29T12:13:34.417Z,974.92
2016-12-29T12:14:39.068Z,974.98
2016-12-29T12:15:45.415Z,975.01
2016-12-29T12:16:52.211Z,974.99
2016-12-29T12:17:38.252Z,974.92
2016-12-29T12:18:33.651Z,974.93
2016-12-29T12:19:44.342Z,974.88
2016-12-29T12:20:40.001Z,974.92
2016-12-29T12:21:38.739Z,974.92
2016-12-29T12:22:43.381Z,974.88
2016-12-29T12:23:40.953Z,974.89
2016-12-29T12:24:40.508Z,974.93
2016-12-29T12:25:38.452Z,974.90
2016-12-29T12:26:45.498Z,974.91
2016-12-29T12:27:45.591Z,974.90
2016-12-29T12:28:43.707Z,974.88
2016-12-29T12:29:50.954Z,974.85
2016-12-29T12:30:38.546Z,974.85
2016-12-29T12:31:28.388Z,974.87
2016-12-29T12:32:28.413Z,974.85
2016-12-29T12:33:33.240Z,974.86
2016-12-29T12:34:35.654Z,974.78
2016-12-29T12:35:43.929Z,974.82
2016-12-29T12:36:48.723Z,974.77
2016-12-29T12:37:48.332Z,974.80
2016-12-29T12:38:43.744Z,974.80
2016-12-29T12:39:55.539Z,974.79
2016-12-29T12:40:48.987Z,974.74
2016-12-29T12:41:43.663Z,974.72